createdAt,value
2018-11-06T00:01:44.825Z,101945.16
2018-11-06T00:04:12.350Z,101943.40
2018-11-06T00:09:38.879Z,101945.69
2018-11-06T00:12:06.564Z,101944.80
2018-11-06T00:14:34.321Z,101945.28
2018-11-06T00:17:01.779Z,101939.50
2018-11-06T00:19:29.552Z,101940.38
2018-11-06T00:21:57.312Z,101939.02
2018-11-06T00:24:24.812Z,101935.44
2018-11-06T00:26:52.585Z,101944.28
2018-11-06T00:29:20.607Z,101945.13
2018-11-06T00:31:48.150Z,101929.28
2018-11-06T00:34:15.833Z,101932.78
2018-11-06T00:36:43.584Z,101937.64
2018-11-06T00:39:11.020Z,101936.36
2018-11-06T00:41:39.266Z,101926.23
2018-11-06T00:44:07.512Z,101928.84
2018-11-06T00:46:34.976Z,101924.74
2018-11-06T00:49:02.720Z,101921.68
2018-11-06T00:51:30.803Z,101933.58
2018-11-06T00:53:58.259Z,101926.95
2018-11-06T00:56:26.055Z,101926.02
2018-11-06T00:58:54.252Z,101926.06
2018-11-06T01:01:21.753Z,101923.89
2018-11-06T01:03:54.153Z,101933.18
2018-11-06T01:06:22.379Z,101875.61
2018-11-06T01:08:49.844Z,101915.80
2018-11-06T01:11:17.411Z,101918.41
2018-11-06T01:13:45.592Z,101914.84
2018-11-06T01:16:13.540Z,101910.45
2018-11-06T01:18:41.146Z,101912.19
2018-11-06T01:21:08.908Z,101910.41
2018-11-06T01:23:36.522Z,101907.40
2018-11-06T01:26:04.438Z,101906.56
2018-11-06T01:28:32.061Z,101901.73
2018-11-06T01:30:59.540Z,101904.78
2018-11-06T01:33:27.424Z,101905.98
2018-11-06T01:35:55.122Z,101913.02
2018-11-06T01:38:22.733Z,101902.41
2018-11-06T01:40:50.400Z,101904.62
2018-11-06T01:43:18.203Z,101905.46
2018-11-06T01:45:45.723Z,101903.69
2018-11-06T01:48:13.391Z,101901.44
2018-11-06T01:50:41.156Z,101901.83
2018-11-06T01:53:08.616Z,101899.53
2018-11-06T01:55:36.221Z,101894.63
2018-11-06T01:58:04.165Z,101904.40
2018-11-06T02:00:31.686Z,101894.67
2018-11-06T02:02:59.366Z,101893.78
2018-11-06T02:05:27.166Z,101890.65
2018-11-06T02:07:54.695Z,101885.73
2018-11-06T02:10:22.645Z,101883.08
2018-11-06T02:12:50.745Z,101894.98
2018-11-06T02:15:18.223Z,101889.71
2018-11-06T02:17:45.967Z,101892.36
2018-11-06T02:20:14.428Z,101884.41
2018-11-06T02:22:42.897Z,101898.13
2018-11-06T02:25:10.764Z,101893.26
2018-11-06T02:27:38.574Z,101892.86
2018-11-06T02:30:07.791Z,101889.80
2018-11-06T02:32:35.710Z,101883.12
2018-11-06T02:35:03.699Z,101887.50
2018-11-06T02:37:31.223Z,101890.16
2018-11-06T02:39:59.053Z,101887.50
2018-11-06T02:42:27.021Z,101887.06
2018-11-06T02:44:54.496Z,101879.09
2018-11-06T02:47:22.211Z,101879.89
2018-11-06T02:49:49.844Z,101876.84
2018-11-06T02:52:17.374Z,101877.72
2018-11-06T02:54:45.239Z,101876.80
2018-11-06T02:57:13.000Z,101874.98
2018-11-06T02:59:40.505Z,101882.47
2018-11-06T03:02:08.164Z,101880.69
2018-11-06T03:04:35.824Z,101877.55
2018-11-06T03:07:03.313Z,101874.84
2018-11-06T03:09:30.956Z,101876.17
2018-11-06T03:11:58.613Z,101875.25
2018-11-06T03:14:26.092Z,101873.47
2018-11-06T03:16:53.876Z,101878.73
2018-11-06T03:19:28.123Z,101881.34
2018-11-06T03:21:55.777Z,101882.67
2018-11-06T03:24:23.253Z,101883.08
2018-11-06T03:26:51.121Z,101878.16
2018-11-06T03:29:18.744Z,101877.23
2018-11-06T03:31:46.363Z,101874.13
2018-11-06T03:34:14.372Z,101867.94
2018-11-06T03:36:42.171Z,101878.11
2018-11-06T03:39:10.182Z,101878.56
2018-11-06T03:41:38.317Z,101876.30
2018-11-06T03:44:06.323Z,101873.20
2018-11-06T03:46:33.835Z,101861.70
2018-11-06T03:49:01.605Z,101873.59
2018-11-06T03:51:29.338Z,101873.98
2018-11-06T03:53:56.849Z,101879.70
2018-11-06T03:56:24.473Z,101887.22
2018-11-06T03:58:52.318Z,101879.25
2018-11-06T04:01:19.796Z,101884.52
2018-11-06T04:03:47.426Z,101882.22
2018-11-06T04:06:15.356Z,101879.97
2018-11-06T04:08:42.857Z,101884.87
2018-11-06T04:11:10.660Z,101887.89
2018-11-06T04:13:38.184Z,101881.29
2018-11-06T04:16:05.662Z,101890.09
2018-11-06T04:18:33.544Z,101880.70
2018-11-06T04:21:00.942Z,101877.11
2018-11-06T04:23:28.491Z,101872.19
2018-11-06T04:25:56.160Z,101872.14
2018-11-06T04:28:23.962Z,101867.67
2018-11-06T04:30:51.414Z,101865.50
2018-11-06T04:33:19.229Z,101864.66
2018-11-06T04:35:46.931Z,101859.35
2018-11-06T04:38:14.382Z,101853.20
2018-11-06T04:40:42.202Z,101855.86
2018-11-06T04:43:09.709Z,101858.02
2018-11-06T04:45:37.613Z,101855.32
2018-11-06T04:48:05.819Z,101866.30
2018-11-06T04:50:33.646Z,101857.44
2018-11-06T04:53:01.124Z,101852.97
2018-11-06T04:55:29.108Z,101852.12
2018-11-06T04:57:56.815Z,101853.80
2018-11-06T05:00:24.337Z,101848.94
2018-11-06T05:02:52.110Z,101855.12
2018-11-06T05:05:19.655Z,101852.03
2018-11-06T05:07:47.158Z,101845.38
2018-11-06T05:10:15.382Z,101847.59
2018-11-06T05:12:43.300Z,101845.78
2018-11-06T05:15:12.279Z,101847.02
2018-11-06T05:17:39.865Z,101835.89
2018-11-06T05:20:09.330Z,101839.83
2018-11-06T05:22:37.093Z,101834.91
2018-11-06T05:25:04.836Z,101829.60
2018-11-06T05:27:32.556Z,101834.91
2018-11-06T05:30:00.057Z,101837.52
2018-11-06T05:32:27.764Z,101830.93
2018-11-06T05:34:55.634Z,101834.91
2018-11-06T05:37:23.038Z,101839.78
2018-11-06T05:40:02.405Z,101837.13
2018-11-06T05:42:29.898Z,101835.75
2018-11-06T05:44:57.377Z,101846.42
2018-11-06T05:47:25.112Z,101834.47
2018-11-06T05:49:52.590Z,101836.67
2018-11-06T05:52:20.470Z,101840.66
2018-11-06T05:54:48.434Z,101829.75
2018-11-06T05:57:16.115Z,101843.62
2018-11-06T05:59:43.921Z,101838.66
2018-11-06T06:02:11.996Z,101843.52
2018-11-06T06:04:39.462Z,101841.22
2018-11-06T06:07:07.275Z,101844.70
2018-11-06T06:09:35.674Z,101841.06
2018-11-06T06:12:03.114Z,101852.08
2018-11-06T06:14:30.613Z,101847.21
2018-11-06T06:16:59.028Z,101863.98
2018-11-06T06:19:26.455Z,101856.46
2018-11-06T06:21:53.899Z,101858.67
2018-11-06T06:24:21.499Z,101850.75
2018-11-06T06:26:49.002Z,101853.91
2018-11-06T06:29:16.522Z,101856.06
2018-11-06T06:31:44.878Z,101852.03
2018-11-06T06:34:12.347Z,101858.14
2018-11-06T06:36:40.515Z,101858.19
2018-11-06T06:39:09.701Z,101867.49
2018-11-06T06:41:37.640Z,101861.73
2018-11-06T06:44:05.767Z,101863.98
2018-11-06T06:46:33.941Z,101872.76
2018-11-06T06:49:01.421Z,101870.53
2018-11-06T06:51:28.858Z,101867.39
2018-11-06T06:54:28.098Z,101864.23
2018-11-06T06:56:55.341Z,101864.28
2018-11-06T06:59:22.994Z,101866.89
2018-11-06T07:01:51.222Z,101870.48
2018-11-06T07:04:19.302Z,101871.36
2018-11-06T07:06:47.329Z,101871.36
2018-11-06T07:09:15.465Z,101872.21
2018-11-06T07:11:43.382Z,101873.05
2018-11-06T07:14:10.832Z,101878.75
2018-11-06T07:16:38.756Z,101863.50
2018-11-06T07:19:06.252Z,101869.94
2018-11-06T07:24:32.788Z,101871.22
2018-11-06T07:27:00.286Z,101872.06
2018-11-06T07:29:28.302Z,101868.51
2018-11-06T07:31:56.034Z,101868.02
2018-11-06T07:34:23.869Z,101872.84
2018-11-06T07:36:51.602Z,101864.42
2018-11-06T07:39:19.337Z,101880.32
2018-11-06T07:41:46.938Z,101879.78
2018-11-06T07:44:14.637Z,101881.55
2018-11-06T07:46:42.485Z,101879.73
2018-11-06T07:49:09.968Z,101874.37
2018-11-06T07:51:37.880Z,101880.97
2018-11-06T07:54:05.496Z,101875.59
2018-11-06T07:56:32.975Z,101876.53
2018-11-06T07:59:00.877Z,101877.41
2018-11-06T08:01:28.419Z,101868.16
2018-11-06T08:03:55.870Z,101873.58
2018-11-06T08:06:23.614Z,101865.59
2018-11-06T08:08:51.285Z,101866.39
2018-11-06T08:11:18.791Z,101865.50
2018-11-06T08:13:46.551Z,101862.41
2018-11-06T08:16:14.494Z,101854.08
2018-11-06T08:18:41.964Z,101861.56
2018-11-06T08:21:09.856Z,101858.95
2018-11-06T08:23:37.630Z,101857.63
2018-11-06T08:26:05.627Z,101859.34
2018-11-06T08:28:33.449Z,101864.16
2018-11-06T08:31:01.611Z,101866.88
2018-11-06T08:33:29.054Z,101864.22
2018-11-06T08:35:56.726Z,101865.06
2018-11-06T08:38:24.491Z,101857.09
2018-11-06T08:40:52.189Z,101854.43
2018-11-06T08:43:19.769Z,101858.42
2018-11-06T08:45:47.273Z,101859.64
2018-11-06T08:48:14.917Z,101860.18
2018-11-06T08:50:42.706Z,101870.81
2018-11-06T08:53:10.358Z,101872.59
2018-11-06T08:55:37.930Z,101870.38
2018-11-06T08:58:05.709Z,101874.32
2018-11-06T09:00:33.441Z,101869.94
2018-11-06T09:03:00.909Z,101876.63
2018-11-06T09:05:28.721Z,101876.63
2018-11-06T09:07:56.315Z,101869.98
2018-11-06T09:10:23.847Z,101869.88
2018-11-06T09:12:51.622Z,101858.95
2018-11-06T09:15:19.141Z,101871.94
2018-11-06T09:17:46.607Z,101863.97
2018-11-06T09:20:15.390Z,101856.78
2018-11-06T09:22:43.095Z,101808.62
2018-11-06T09:25:12.000Z,101854.50
2018-11-06T09:27:40.431Z,101849.53
2018-11-06T09:30:09.898Z,101857.89
2018-11-06T09:32:37.392Z,101856.56
2018-11-06T09:35:05.954Z,101853.90
2018-11-06T09:37:33.871Z,101860.02
2018-11-06T09:40:01.381Z,101846.77
2018-11-06T09:42:29.172Z,101853.84
2018-11-06T09:44:56.976Z,101851.69
2018-11-06T09:47:24.437Z,101852.56
2018-11-06T09:49:52.482Z,101855.62
2018-11-06T09:52:20.321Z,101852.52
2018-11-06T09:54:48.047Z,101858.73
2018-11-06T09:57:15.778Z,101865.77
2018-11-06T09:59:43.504Z,101859.96
2018-11-06T10:02:10.942Z,101855.92
2018-11-06T10:04:39.069Z,101868.31
2018-11-06T10:07:06.880Z,101861.19
2018-11-06T10:09:34.064Z,101868.81
2018-11-06T10:12:01.773Z,101862.67
2018-11-06T10:14:29.682Z,101866.27
2018-11-06T10:16:57.111Z,101866.72
2018-11-06T10:19:25.070Z,101860.56
2018-11-06T10:21:52.550Z,101856.58
2018-11-06T10:24:19.990Z,101862.05
2018-11-06T10:26:47.730Z,101856.38
2018-11-06T10:29:15.281Z,101859.55
2018-11-06T10:31:42.769Z,101864.91
2018-11-06T10:34:10.717Z,101860.58
2018-11-06T10:36:38.463Z,101859.75
2018-11-06T10:39:09.068Z,101861.13
2018-11-06T10:41:37.156Z,101859.75
2018-11-06T10:44:05.189Z,101863.73
2018-11-06T10:46:32.669Z,101865.06
2018-11-06T10:49:00.702Z,101862.41
2018-11-06T10:51:28.458Z,101858.42
2018-11-06T10:53:55.944Z,101856.69
2018-11-06T10:56:23.681Z,101858.95
2018-11-06T10:58:51.271Z,101852.25
2018-11-06T11:01:24.344Z,101860.98
2018-11-06T11:03:57.748Z,101861.41
2018-11-06T11:06:25.431Z,101857.92
2018-11-06T11:08:52.894Z,101860.18
2018-11-06T11:11:20.734Z,101859.70
2018-11-06T11:13:48.262Z,101855.31
2018-11-06T11:16:15.728Z,101858.02
2018-11-06T11:18:43.385Z,101854.48
2018-11-06T11:21:11.150Z,101854.43
2018-11-06T11:23:38.833Z,101855.27
2018-11-06T11:26:06.720Z,101860.98
2018-11-06T11:28:34.322Z,101851.27
2018-11-06T11:31:02.378Z,101852.60
2018-11-06T11:33:30.645Z,101841.67
2018-11-06T11:35:58.347Z,101843.45
2018-11-06T11:38:25.874Z,101844.43
2018-11-06T11:40:54.072Z,101836.08
2018-11-06T11:43:22.451Z,101829.43
2018-11-06T11:45:50.016Z,101827.66
2018-11-06T11:48:18.134Z,101829.38
2018-11-06T11:50:45.877Z,101834.14
2018-11-06T11:53:13.340Z,101825.23
2018-11-06T11:55:41.112Z,101829.77
2018-11-06T11:58:08.889Z,101831.48
2018-11-06T12:00:38.093Z,101837.63
2018-11-06T12:03:06.933Z,101831.04
2018-11-06T12:05:35.102Z,101835.82
2018-11-06T12:08:02.596Z,101842.95
2018-11-06T12:10:30.761Z,101841.19
2018-11-06T12:12:58.604Z,101828.88
2018-11-06T12:15:26.113Z,101828.83
2018-11-06T12:17:54.102Z,101827.00
2018-11-06T12:20:21.842Z,101828.33
2018-11-06T12:22:49.335Z,101823.86
2018-11-06T12:25:17.383Z,101818.59
2018-11-06T12:27:44.846Z,101821.36
2018-11-06T12:30:13.855Z,101811.66
2018-11-06T12:32:41.973Z,101818.34
2018-11-06T12:35:10.731Z,101813.53
2018-11-06T12:37:38.584Z,101819.33
2018-11-06T12:40:07.335Z,101820.23
2018-11-06T12:42:35.122Z,101817.67
2018-11-06T12:45:02.696Z,101816.78
2018-11-06T12:47:30.659Z,101818.50
2018-11-06T12:49:58.425Z,101816.67
2018-11-06T12:52:25.996Z,101812.64
2018-11-06T12:54:53.953Z,101811.30
2018-11-06T12:57:21.727Z,101812.20
2018-11-06T12:59:49.270Z,101804.61
2018-11-06T13:02:17.256Z,101809.05
2018-11-06T13:04:45.000Z,101806.09
2018-11-06T13:07:12.474Z,101802.11
2018-11-06T13:09:40.245Z,101800.83
2018-11-06T13:12:07.985Z,101792.86
2018-11-06T13:14:35.481Z,101800.73
2018-11-06T13:17:03.280Z,101795.36
2018-11-06T13:19:31.124Z,101792.22
2018-11-06T13:21:58.577Z,101793.55
2018-11-06T13:24:26.108Z,101795.66
2018-11-06T13:26:53.655Z,101789.84
2018-11-06T13:29:21.143Z,101798.16
2018-11-06T13:31:48.736Z,101797.76
2018-11-06T13:34:16.238Z,101794.22
2018-11-06T13:36:43.683Z,101795.16
2018-11-06T13:39:12.497Z,101790.73
2018-11-06T13:41:40.416Z,101793.28
2018-11-06T13:44:08.736Z,101794.67
2018-11-06T13:46:36.507Z,101792.44
2018-11-06T13:49:04.488Z,101787.62
2018-11-06T13:51:32.050Z,101784.62
2018-11-06T13:53:59.774Z,101780.26
2018-11-06T13:56:27.316Z,101722.16
2018-11-06T13:58:54.747Z,101784.24
2018-11-06T14:01:22.730Z,101786.06
2018-11-06T14:03:50.430Z,101785.17
2018-11-06T14:06:17.913Z,101733.27
2018-11-06T14:08:45.678Z,101780.52
2018-11-06T14:11:13.418Z,101787.16
2018-11-06T14:13:40.917Z,101788.97
2018-11-06T14:16:08.689Z,101786.33
2018-11-06T14:18:36.442Z,101785.38
2018-11-06T14:21:04.224Z,101780.90
2018-11-06T14:23:32.031Z,101781.00
2018-11-06T14:25:59.891Z,101782.28
2018-11-06T14:28:27.368Z,101779.08
2018-11-06T14:30:55.266Z,101780.80
2018-11-06T14:33:23.191Z,101767.45
2018-11-06T14:35:50.686Z,101776.27
2018-11-06T14:38:18.562Z,101776.70
2018-11-06T14:40:46.314Z,101781.97
2018-11-06T14:43:13.785Z,101770.45
2018-11-06T14:45:41.548Z,101777.50
2018-11-06T14:48:09.379Z,101775.31
2018-11-06T14:50:36.918Z,101769.47
2018-11-06T14:53:05.451Z,101767.73
2018-11-06T14:55:33.178Z,101769.13
2018-11-06T14:58:00.626Z,101764.73
2018-11-06T15:00:28.459Z,101768.24
2018-11-06T15:02:56.565Z,101764.20
2018-11-06T15:05:24.184Z,101765.96
2018-11-06T15:07:52.060Z,101758.44
2018-11-06T15:10:19.852Z,101756.61
2018-11-06T15:12:47.787Z,101753.89
2018-11-06T15:15:16.373Z,101759.66
2018-11-06T15:17:44.934Z,101754.84
2018-11-06T15:20:14.208Z,101759.34
2018-11-06T15:22:42.651Z,101755.45
2018-11-06T15:25:11.165Z,101753.20
2018-11-06T15:27:38.841Z,101754.95
2018-11-06T15:30:08.097Z,101756.28
2018-11-06T15:32:35.818Z,101751.47
2018-11-06T15:35:03.475Z,101753.25
2018-11-06T15:37:31.380Z,101747.98
2018-11-06T15:39:58.934Z,101750.64
2018-11-06T15:42:26.463Z,101754.23
2018-11-06T15:44:54.373Z,101759.95
2018-11-06T15:47:21.794Z,101755.06
2018-11-06T15:49:49.298Z,101760.38
2018-11-06T15:52:16.889Z,101757.83
2018-11-06T15:54:44.897Z,101754.34
2018-11-06T15:57:12.253Z,101755.33
2018-11-06T15:59:40.044Z,101753.06
2018-11-06T16:02:07.769Z,101753.95
2018-11-06T16:04:35.335Z,101761.05
2018-11-06T16:07:03.062Z,101755.78
2018-11-06T16:09:30.734Z,101751.34
2018-11-06T16:11:58.206Z,101749.58
2018-11-06T16:17:00.259Z,101754.00
2018-11-06T16:19:27.786Z,101746.88
2018-11-06T16:21:55.493Z,101743.70
2018-11-06T16:24:23.244Z,101745.48
2018-11-06T16:26:50.709Z,101743.31
2018-11-06T16:29:18.461Z,101741.98
2018-11-06T16:31:46.221Z,101740.12
2018-11-06T16:34:13.711Z,101736.56
2018-11-06T16:36:41.458Z,101725.05
2018-11-06T16:39:10.735Z,101725.92
2018-11-06T16:41:38.263Z,101725.88
2018-11-06T16:44:06.281Z,101729.86
2018-11-06T16:46:33.811Z,101719.62
2018-11-06T16:49:01.343Z,101717.84
2018-11-06T16:51:29.564Z,101722.28
2018-11-06T16:53:57.333Z,101711.59
2018-11-06T16:56:24.905Z,101706.67
2018-11-06T16:58:52.559Z,101708.83
2018-11-06T17:01:20.142Z,101706.11
2018-11-06T17:03:47.612Z,101703.91
2018-11-06T17:06:50.896Z,101714.91
2018-11-06T17:09:19.269Z,101705.12
2018-11-06T17:11:46.742Z,101714.03
2018-11-06T17:14:14.784Z,101713.63
2018-11-06T17:16:42.255Z,101714.53
2018-11-06T17:19:09.746Z,101718.58
2018-11-06T17:21:37.577Z,101727.04
2018-11-06T17:24:05.724Z,101733.31
2018-11-06T17:26:33.231Z,101733.80
2018-11-06T17:29:01.683Z,101732.03
2018-11-06T17:31:29.303Z,101737.41
2018-11-06T17:33:56.756Z,101737.89
2018-11-06T17:36:24.698Z,101733.42
2018-11-06T17:38:52.326Z,101742.72
2018-11-06T17:41:19.815Z,101740.59
2018-11-06T17:43:47.527Z,101740.59
2018-11-06T17:46:15.415Z,101739.78
2018-11-06T17:48:42.942Z,101735.02
2018-11-06T17:51:10.660Z,101732.78
2018-11-06T17:53:38.213Z,101732.84
2018-11-06T17:56:05.938Z,101735.02
2018-11-06T17:58:33.633Z,101735.50
2018-11-06T18:01:01.139Z,101730.12
2018-11-06T18:03:28.696Z,101732.73
2018-11-06T18:05:56.647Z,101735.34
2018-11-06T18:08:24.684Z,101734.80
2018-11-06T18:10:52.224Z,101730.76
2018-11-06T18:13:19.918Z,101735.23
2018-11-06T18:15:47.702Z,101734.80
2018-11-06T18:18:15.201Z,101736.56
2018-11-06T18:20:42.894Z,101735.23
2018-11-06T18:23:10.511Z,101747.20
2018-11-06T18:25:38.069Z,101747.64
2018-11-06T18:28:06.148Z,101744.59
2018-11-06T18:30:33.727Z,101750.36
2018-11-06T18:33:01.217Z,101744.11
2018-11-06T18:35:28.960Z,101739.27
2018-11-06T18:37:56.674Z,101733.58
2018-11-06T18:40:24.101Z,101738.05
2018-11-06T18:42:51.833Z,101736.29
2018-11-06T18:45:19.459Z,101733.63
2018-11-06T18:47:47.039Z,101731.96
2018-11-06T18:50:16.112Z,101726.14
2018-11-06T18:52:44.949Z,101729.59
2018-11-06T18:55:12.459Z,101733.12
2018-11-06T18:57:40.987Z,101729.09
2018-11-06T19:00:12.025Z,101728.64
2018-11-06T19:02:39.643Z,101726.43
2018-11-06T19:05:07.385Z,101719.84
2018-11-06T19:10:38.185Z,101716.78
2018-11-06T19:13:05.591Z,101709.98
2018-11-06T19:15:33.034Z,101706.89
2018-11-06T19:18:00.826Z,101704.55
2018-11-06T19:20:28.324Z,101706.22
2018-11-06T19:22:55.780Z,101703.05
2018-11-06T19:25:23.655Z,101698.19
2018-11-06T19:27:51.679Z,101701.24
2018-11-06T19:30:19.703Z,101692.81
2018-11-06T19:32:47.408Z,101695.92
2018-11-06T19:35:14.913Z,101699.06
2018-11-06T19:37:42.524Z,101701.72
2018-11-06T19:40:11.590Z,101700.84
2018-11-06T19:42:39.773Z,101701.78
2018-11-06T19:45:08.075Z,101697.31
2018-11-06T19:47:35.846Z,101696.91
2018-11-06T19:50:03.512Z,101693.32
2018-11-06T19:52:30.951Z,101689.33
2018-11-06T19:54:58.832Z,101691.59
2018-11-06T19:57:26.323Z,101683.73
2018-11-06T19:59:53.796Z,101681.52
2018-11-06T20:02:21.542Z,101669.98
2018-11-06T20:07:49.201Z,101674.43
2018-11-06T20:10:17.993Z,101665.13
2018-11-06T20:12:46.424Z,101663.80
2018-11-06T20:15:14.943Z,101663.73
2018-11-06T20:17:42.861Z,101659.24
2018-11-06T20:20:13.732Z,101665.34
2018-11-06T20:22:41.457Z,101663.12
2018-11-06T20:25:09.559Z,101667.11
2018-11-06T20:27:37.078Z,101660.91
2018-11-06T20:30:06.119Z,101663.56
2018-11-06T20:32:33.542Z,101663.96
2018-11-06T20:35:00.983Z,101661.30
2018-11-06T20:37:28.773Z,101666.63
2018-11-06T20:39:56.249Z,101664.84
2018-11-06T20:42:23.738Z,101669.77
2018-11-06T20:44:51.529Z,101666.11
2018-11-06T20:47:19.038Z,101658.25
2018-11-06T20:49:46.626Z,101665.34
2018-11-06T20:52:14.312Z,101664.50
2018-11-06T20:54:41.770Z,101656.09
2018-11-06T20:57:09.243Z,101665.46
2018-11-06T20:59:36.922Z,101665.89
2018-11-06T21:02:05.473Z,101656.98
2018-11-06T21:04:32.942Z,101664.45
2018-11-06T21:07:00.744Z,101665.78
2018-11-06T21:09:28.189Z,101656.53
2018-11-06T21:11:55.719Z,101661.84
2018-11-06T21:14:23.433Z,101665.83
2018-11-06T21:16:50.962Z,101668.06
2018-11-06T21:19:18.466Z,101671.27
2018-11-06T21:21:46.112Z,101667.27
2018-11-06T21:24:13.542Z,101669.45
2018-11-06T21:26:41.066Z,101668.55
2018-11-06T21:29:08.551Z,101674.71
2018-11-06T21:31:35.996Z,101670.27
2018-11-06T21:34:03.534Z,101663.63
2018-11-06T21:36:31.144Z,101662.69
2018-11-06T21:38:58.655Z,101673.75
2018-11-06T21:41:26.133Z,101659.19
2018-11-06T21:43:53.831Z,101650.73
2018-11-06T21:46:21.304Z,101654.83
2018-11-06T21:48:48.748Z,101645.12
2018-11-06T21:51:16.572Z,101643.80
2018-11-06T21:53:44.035Z,101636.27
2018-11-06T21:56:11.515Z,101631.44
2018-11-06T21:58:39.105Z,101630.11
2018-11-06T22:01:06.630Z,101624.73
2018-11-06T22:03:34.084Z,101637.44
2018-11-06T22:06:01.636Z,101627.22
2018-11-06T22:08:29.124Z,101622.30
2018-11-06T22:10:56.582Z,101628.44
2018-11-06T22:13:24.203Z,101620.91
2018-11-06T22:15:51.705Z,101617.80
2018-11-06T22:18:19.918Z,101611.09
2018-11-06T22:20:47.644Z,101611.95
2018-11-06T22:23:15.142Z,101608.38
2018-11-06T22:25:42.633Z,101612.83
2018-11-06T22:28:10.172Z,101612.00
2018-11-06T22:30:37.650Z,101616.53
2018-11-06T22:33:05.235Z,101615.20
2018-11-06T22:35:33.001Z,101611.22
2018-11-06T22:38:00.507Z,101617.32
2018-11-06T22:40:27.938Z,101619.02
2018-11-06T22:42:55.750Z,101618.57
2018-11-06T22:45:23.182Z,101626.48
2018-11-06T22:47:50.675Z,101633.13
2018-11-06T22:50:18.454Z,101636.19
2018-11-06T22:52:46.652Z,101641.45
2018-11-06T22:55:14.203Z,101636.13
2018-11-06T22:57:41.980Z,101637.01
2018-11-06T23:00:16.226Z,101635.68
2018-11-06T23:02:44.049Z,101628.16
2018-11-06T23:05:11.625Z,101630.36
2018-11-06T23:07:44.844Z,101625.50
2018-11-06T23:10:12.493Z,101623.28
2018-11-06T23:12:40.032Z,101625.89
2018-11-06T23:15:07.863Z,101622.78
2018-11-06T23:17:35.519Z,101623.23
2018-11-06T23:20:03.160Z,101614.47
2018-11-06T23:22:30.836Z,101619.30
2018-11-06T23:24:58.585Z,101617.52
2018-11-06T23:27:26.029Z,101617.63
2018-11-06T23:29:53.706Z,101620.41
2018-11-06T23:32:21.230Z,101620.47
2018-11-06T23:34:48.675Z,101615.54
2018-11-06T23:37:16.324Z,101622.64
2018-11-06T23:39:43.979Z,101618.59
2018-11-06T23:42:11.388Z,101622.25
2018-11-06T23:44:39.047Z,101618.31
2018-11-06T23:47:06.759Z,101619.19
2018-11-06T23:49:34.180Z,101616.48
2018-11-06T23:52:01.744Z,101615.09
2018-11-06T23:54:29.400Z,101615.03
2018-11-06T23:56:56.906Z,101613.19
2018-11-06T23:59:24.506Z,101614.04
